sensor_id;sensor_type;location;lat;lon;timestamp;pressure;altitude;pressure_sealevel;temperature;humidity
11413;BME280;5762;43.256;26.960;2024-01-30T00:01:03;102879.61;;;0.61;100.00
11413;BME280;5762;43.256;26.960;2024-01-30T00:03:31;102885.44;;;0.60;100.00
11413;BME280;5762;43.256;26.960;2024-01-30T00:05:59;102888.79;;;0.62;100.00
11413;BME280;5762;43.256;26.960;2024-01-30T00:08:27;102893.97;;;0.64;100.00
11413;BME280;5762;43.256;26.960;2024-01-30T00:10:55;102895.95;;;0.62;100.00
11413;BME280;5762;43.256;26.960;2024-01-30T00:13:23;102886.28;;;0.61;100.00
11413;BME280;5762;43.256;26.960;2024-01-30T00:15:51;102885.44;;;0.60;100.00
11413;BME280;5762;43.256;26.960;2024-01-30T00:18:20;102891.42;;;0.58;100.00
11413;BME280;5762;43.256;26.960;2024-01-30T00:20:48;102895.11;;;0.61;100.00
11413;BME280;5762;43.256;26.960;2024-01-30T00:23:16;102888.45;;;0.61;100.00
11413;BME280;5762;43.256;26.960;2024-01-30T00:25:44;102891.77;;;0.59;100.00
11413;BME280;5762;43.256;26.960;2024-01-30T00:28:13;102901.77;;;0.61;100.00
11413;BME280;5762;43.256;26.960;2024-01-30T00:30:41;102900.44;;;0.61;100.00
11413;BME280;5762;43.256;26.960;2024-01-30T00:33:09;102887.39;;;0.54;100.00
11413;BME280;5762;43.256;26.960;2024-01-30T00:35:37;102893.06;;;0.55;100.00
11413;BME280;5762;43.256;26.960;2024-01-30T00:38:05;102887.42;;;0.58;100.00
11413;BME280;5762;43.256;26.960;2024-01-30T00:40:34;102889.09;;;0.59;100.00
11413;BME280;5762;43.256;26.960;2024-01-30T00:43:02;102891.42;;;0.58;100.00
11413;BME280;5762;43.256;26.960;2024-01-30T00:45:30;102885.90;;;0.56;100.00
11413;BME280;5762;43.256;26.960;2024-01-30T00:47:58;102890.58;;;0.58;100.00
11413;BME280;5762;43.256;26.960;2024-01-30T00:50:26;102886.58;;;0.58;100.00
11413;BME280;5762;43.256;26.960;2024-01-30T00:52:54;102888.07;;;0.56;100.00
11413;BME280;5762;43.256;26.960;2024-01-30T00:55:22;102881.41;;;0.56;100.00
11413;BME280;5762;43.256;26.960;2024-01-30T00:57:50;102874.56;;;0.54;100.00
11413;BME280;5762;43.256;26.960;2024-01-30T01:00:19;102881.41;;;0.56;100.00
11413;BME280;5762;43.256;26.960;2024-01-30T01:02:47;102885.56;;;0.55;100.00
11413;BME280;5762;43.256;26.960;2024-01-30T01:05:15;102872.58;;;0.56;100.00
11413;BME280;5762;43.256;26.960;2024-01-30T01:07:44;102873.56;;;0.55;100.00
11413;BME280;5762;43.256;26.960;2024-01-30T01:10:12;102863.37;;;0.50;100.00
11413;BME280;5762;43.256;26.960;2024-01-30T01:12:40;102866.22;;;0.53;100.00
11413;BME280;5762;43.256;26.960;2024-01-30T01:15:08;102863.67;;;0.47;100.00
11413;BME280;5762;43.256;26.960;2024-01-30T01:17:37;102874.67;;;0.48;100.00
11413;BME280;5762;43.256;26.960;2024-01-30T01:20:06;102876.34;;;0.49;100.00
11413;BME280;5762;43.256;26.960;2024-01-30T01:22:34;102875.20;;;0.52;100.00
11413;BME280;5762;43.256;26.960;2024-01-30T01:25:03;102871.02;;;0.49;100.00
11413;BME280;5762;43.256;26.960;2024-01-30T01:27:31;102870.03;;;0.50;100.00
11413;BME280;5762;43.256;26.960;2024-01-30T01:30:00;102871.05;;;0.53;100.00
11413;BME280;5762;43.256;26.960;2024-01-30T01:32:28;102877.72;;;0.53;100.00
11413;BME280;5762;43.256;26.960;2024-01-30T01:34:56;102869.72;;;0.53;100.00
11413;BME280;5762;43.256;26.960;2024-01-30T01:37:24;102874.67;;;0.48;100.00
11413;BME280;5762;43.256;26.960;2024-01-30T01:39:52;102865.84;;;0.48;100.00
11413;BME280;5762;43.256;26.960;2024-01-30T01:42:21;102861.54;;;0.51;100.00
11413;BME280;5762;43.256;26.960;2024-01-30T01:44:49;102863.86;;;0.50;100.00
11413;BME280;5762;43.256;26.960;2024-01-30T01:47:17;102865.04;;;0.51;100.00
11413;BME280;5762;43.256;26.960;2024-01-30T01:49:45;102863.17;;;0.48;100.00
11413;BME280;5762;43.256;26.960;2024-01-30T01:52:13;102861.38;;;0.52;100.00
11413;BME280;5762;43.256;26.960;2024-01-30T01:54:41;102860.86;;;0.49;100.00
11413;BME280;5762;43.256;26.960;2024-01-30T01:57:10;102847.50;;;0.45;100.00
11413;BME280;5762;43.256;26.960;2024-01-30T01:59:38;102858.19;;;0.49;100.00
11413;BME280;5762;43.256;26.960;2024-01-30T02:02:06;102863.67;;;0.47;100.00
11413;BME280;5762;43.256;26.960;2024-01-30T02:04:36;102864.66;;;0.46;100.00
11413;BME280;5762;43.256;26.960;2024-01-30T02:07:04;102870.34;;;0.47;100.00
11413;BME280;5762;43.256;26.960;2024-01-30T02:09:32;102870.98;;;0.45;100.00
11413;BME280;5762;43.256;26.960;2024-01-30T02:12:00;102864.52;;;0.48;100.00
11413;BME280;5762;43.256;26.960;2024-01-30T02:14:29;102860.70;;;0.50;100.00
11413;BME280;5762;43.256;26.960;2024-01-30T02:16:57;102866.68;;;0.48;100.00
11413;BME280;5762;43.256;26.960;2024-01-30T02:19:25;102859.86;;;0.50;100.00
11413;BME280;5762;43.256;26.960;2024-01-30T02:21:53;102859.34;;;0.46;100.00
11413;BME280;5762;43.256;26.960;2024-01-30T02:24:21;102845.70;;;0.49;100.00
11413;BME280;5762;43.256;26.960;2024-01-30T02:26:50;102854.88;;;0.51;100.00
11413;BME280;5762;43.256;26.960;2024-01-30T02:29:18;102849.55;;;0.51;100.00
11413;BME280;5762;43.256;26.960;2024-01-30T02:31:46;102850.88;;;0.51;100.00
11413;BME280;5762;43.256;26.960;2024-01-30T02:34:14;102843.87;;;0.50;100.00
11413;BME280;5762;43.256;26.960;2024-01-30T02:36:42;102835.70;;;0.47;100.00
11413;BME280;5762;43.256;26.960;2024-01-30T02:39:11;102831.23;;;0.52;100.00
11413;BME280;5762;43.256;26.960;2024-01-30T02:41:39;102833.22;;;0.50;100.00
11413;BME280;5762;43.256;26.960;2024-01-30T02:44:07;102831.52;;;0.45;100.00
11413;BME280;5762;43.256;26.960;2024-01-30T02:46:35;102827.20;;;0.48;100.00
11413;BME280;5762;43.256;26.960;2024-01-30T02:49:03;102818.53;;;0.46;100.00
11413;BME280;5762;43.256;26.960;2024-01-30T02:51:31;102834.52;;;0.46;100.00
11413;BME280;5762;43.256;26.960;2024-01-30T02:53:59;102832.01;;;0.44;100.00
11413;BME280;5762;43.256;26.960;2024-01-30T02:56:28;102839.84;;;0.46;100.00
11413;BME280;5762;43.256;26.960;2024-01-30T02:58:56;102838.52;;;0.46;100.00
11413;BME280;5762;43.256;26.960;2024-01-30T03:01:24;102835.84;;;0.46;100.00
11413;BME280;5762;43.256;26.960;2024-01-30T03:03:52;102826.00;;;0.42;100.00
11413;BME280;5762;43.256;26.960;2024-01-30T03:06:23;102839.16;;;0.44;100.00
11413;BME280;5762;43.256;26.960;2024-01-30T03:08:51;102850.20;;;0.49;100.00
11413;BME280;5762;43.256;26.960;2024-01-30T03:11:19;102845.02;;;0.47;100.00
11413;BME280;5762;43.256;26.960;2024-01-30T03:13:47;102848.03;;;0.48;100.00
11413;BME280;5762;43.256;26.960;2024-01-30T03:16:15;102837.67;;;0.45;100.00
11413;BME280;5762;43.256;26.960;2024-01-30T03:18:43;102843.34;;;0.46;100.00
11413;BME280;5762;43.256;26.960;2024-01-30T03:21:12;102840.69;;;0.46;100.00
11413;BME280;5762;43.256;26.960;2024-01-30T03:23:40;102844.34;;;0.45;100.00
11413;BME280;5762;43.256;26.960;2024-01-30T03:26:08;102846.70;;;0.48;100.00
11413;BME280;5762;43.256;26.960;2024-01-30T03:28:37;102853.55;;;0.51;100.00
11413;BME280;5762;43.256;26.960;2024-01-30T03:31:05;102863.33;;;0.46;100.00
11413;BME280;5762;43.256;26.960;2024-01-30T03:33:33;102859.83;;;0.46;100.00
11413;BME280;5762;43.256;26.960;2024-01-30T03:36:04;102855.49;;;0.45;100.00
11413;BME280;5762;43.256;26.960;2024-01-30T03:38:33;102856.14;;;0.43;100.00
11413;BME280;5762;43.256;26.960;2024-01-30T03:41:01;102837.30;;;0.40;100.00
11413;BME280;5762;43.256;26.960;2024-01-30T03:43:29;102844.80;;;0.41;100.00
11413;BME280;5762;43.256;26.960;2024-01-30T03:45:57;102838.45;;;0.38;100.00
11413;BME280;5762;43.256;26.960;2024-01-30T03:48:25;102837.95;;;0.38;100.00
11413;BME280;5762;43.256;26.960;2024-01-30T03:50:53;102833.27;;;0.32;100.00
11413;BME280;5762;43.256;26.960;2024-01-30T03:53:21;102840.77;;;0.37;100.00
11413;BME280;5762;43.256;26.960;2024-01-30T03:55:50;102826.80;;;0.35;100.00
11413;BME280;5762;43.256;26.960;2024-01-30T03:58:18;102841.27;;;0.36;100.00
11413;BME280;5762;43.256;26.960;2024-01-30T04:00:46;102846.25;;;0.35;100.00
11413;BME280;5762;43.256;26.960;2024-01-30T04:03:14;102842.78;;;0.35;100.00
11413;BME280;5762;43.256;26.960;2024-01-30T04:05:45;102835.75;;;0.29;100.00
11413;BME280;5762;43.256;26.960;2024-01-30T04:08:13;102843.59;;;0.35;100.00
11413;BME280;5762;43.256;26.960;2024-01-30T04:10:41;102843.59;;;0.35;100.00
11413;BME280;5762;43.256;26.960;2024-01-30T04:13:09;102840.28;;;0.37;100.00
11413;BME280;5762;43.256;26.960;2024-01-30T04:15:37;102848.27;;;0.37;100.00
11413;BME280;5762;43.256;26.960;2024-01-30T04:18:05;102839.94;;;0.36;100.00
11413;BME280;5762;43.256;26.960;2024-01-30T04:20:33;102836.62;;;0.38;100.00
11413;BME280;5762;43.256;26.960;2024-01-30T04:23:02;102828.97;;;0.39;100.00
11413;BME280;5762;43.256;26.960;2024-01-30T04:25:30;102823.48;;;0.41;100.00
11413;BME280;5762;43.256;26.960;2024-01-30T04:27:58;102817.66;;;0.41;100.00
11413;BME280;5762;43.256;26.960;2024-01-30T04:30:26;102815.30;;;0.38;100.00
11413;BME280;5762;43.256;26.960;2024-01-30T04:32:54;102826.64;;;0.40;100.00
11413;BME280;5762;43.256;26.960;2024-01-30T04:35:22;102828.97;;;0.39;100.00
11413;BME280;5762;43.256;26.960;2024-01-30T04:37:54;102823.64;;;0.39;100.00
11413;BME280;5762;43.256;26.960;2024-01-30T04:40:20;102821.97;;;0.38;100.00
11413;BME280;5762;43.256;26.960;2024-01-30T04:42:48;102823.64;;;0.39;100.00
11413;BME280;5762;43.256;26.960;2024-01-30T04:45:17;102825.31;;;0.40;100.00
11413;BME280;5762;43.256;26.960;2024-01-30T04:47:45;102822.65;;;0.40;100.00
11413;BME280;5762;43.256;26.960;2024-01-30T04:50:13;102818.31;;;0.39;100.00
11413;BME280;5762;43.256;26.960;2024-01-30T04:52:41;102812.98;;;0.39;100.00
11413;BME280;5762;43.256;26.960;2024-01-30T04:55:09;102823.98;;;0.40;100.00
11413;BME280;5762;43.256;26.960;2024-01-30T04:57:37;102830.30;;;0.39;100.00
11413;BME280;5762;43.256;26.960;2024-01-30T05:00:06;102826.00;;;0.42;100.00
11413;BME280;5762;43.256;26.960;2024-01-30T05:02:34;102830.98;;;0.41;100.00
11413;BME280;5762;43.256;26.960;2024-01-30T05:05:02;102834.64;;;0.40;100.00
11413;BME280;5762;43.256;26.960;2024-01-30T05:07:30;102831.48;;;0.41;100.00
11413;BME280;5762;43.256;26.960;2024-01-30T05:09:58;102833.00;;;0.43;100.00
11413;BME280;5762;43.256;26.960;2024-01-30T05:12:26;102827.52;;;0.45;100.00
11413;BME280;5762;43.256;26.960;2024-01-30T05:14:54;102833.34;;;0.44;100.00
11413;BME280;5762;43.256;26.960;2024-01-30T05:17:23;102834.64;;;0.40;100.00
11413;BME280;5762;43.256;26.960;2024-01-30T05:19:51;102830.14;;;0.41;100.00
11413;BME280;5762;43.256;26.960;2024-01-30T05:22:19;102831.66;;;0.43;100.00
11413;BME280;5762;43.256;26.960;2024-01-30T05:24:47;102828.81;;;0.41;100.00
11413;BME280;5762;43.256;26.960;2024-01-30T05:27:15;102814.47;;;0.38;100.00
11413;BME280;5762;43.256;26.960;2024-01-30T05:29:43;102825.81;;;0.40;100.00
11413;BME280;5762;43.256;26.960;2024-01-30T05:32:12;102817.63;;;0.37;100.00
11413;BME280;5762;43.256;26.960;2024-01-30T05:34:40;102819.15;;;0.40;100.00
11413;BME280;5762;43.256;26.960;2024-01-30T05:37:08;102833.34;;;0.44;100.00
11413;BME280;5762;43.256;26.960;2024-01-30T05:39:37;102836.50;;;0.44;100.00
11413;BME280;5762;43.256;26.960;2024-01-30T05:42:05;102843.81;;;0.42;100.00
11413;BME280;5762;43.256;26.960;2024-01-30T05:44:33;102851.13;;;0.40;100.00
11413;BME280;5762;43.256;26.960;2024-01-30T05:47:01;102857.28;;;0.40;100.00
11413;BME280;5762;43.256;26.960;2024-01-30T05:49:29;102862.80;;;0.43;100.00
11413;BME280;5762;43.256;26.960;2024-01-30T05:51:58;102864.33;;;0.45;100.00
11413;BME280;5762;43.256;26.960;2024-01-30T05:54:26;102869.95;;;0.42;100.00
11413;BME280;5762;43.256;26.960;2024-01-30T05:56:54;102863.30;;;0.42;100.00
11413;BME280;5762;43.256;26.960;2024-01-30T05:59:22;102866.95;;;0.41;100.00
11413;BME280;5762;43.256;26.960;2024-01-30T06:01:50;102863.41;;;0.37;100.00
11413;BME280;5762;43.256;26.960;2024-01-30T06:04:18;102867.60;;;0.39;100.00
11413;BME280;5762;43.256;26.960;2024-01-30T06:06:46;102878.60;;;0.40;100.00
11413;BME280;5762;43.256;26.960;2024-01-30T06:09:14;102879.59;;;0.39;100.00
11413;BME280;5762;43.256;26.960;2024-01-30T06:11:42;102878.98;;;0.45;100.00
11413;BME280;5762;43.256;26.960;2024-01-30T06:14:11;102882.29;;;0.43;100.00
11413;BME280;5762;43.256;26.960;2024-01-30T06:16:39;102901.13;;;0.46;100.00
11413;BME280;5762;43.256;26.960;2024-01-30T06:19:07;102893.98;;;0.46;100.00
11413;BME280;5762;43.256;26.960;2024-01-30T06:21:35;102901.44;;;0.43;100.00
11413;BME280;5762;43.256;26.960;2024-01-30T06:24:03;102903.15;;;0.48;100.00
11413;BME280;5762;43.256;26.960;2024-01-30T06:26:32;102898.97;;;0.45;100.00
11413;BME280;5762;43.256;26.960;2024-01-30T06:29:00;102906.95;;;0.45;100.00
11413;BME280;5762;43.256;26.960;2024-01-30T06:31:28;102907.64;;;0.47;100.00
11413;BME280;5762;43.256;26.960;2024-01-30T06:33:56;102907.34;;;0.50;100.00
11413;BME280;5762;43.256;26.960;2024-01-30T06:36:24;102911.34;;;0.50;100.00
11413;BME280;5762;43.256;26.960;2024-01-30T06:38:52;102917.80;;;0.48;100.00
11413;BME280;5762;43.256;26.960;2024-01-30T06:41:20;102926.98;;;0.49;100.00
11413;BME280;5762;43.256;26.960;2024-01-30T06:43:49;102923.78;;;0.46;100.00
11413;BME280;5762;43.256;26.960;2024-01-30T06:46:18;102929.95;;;0.46;100.00
11413;BME280;5762;43.256;26.960;2024-01-30T06:48:46;102927.63;;;0.47;100.00
11413;BME280;5762;43.256;26.960;2024-01-30T06:51:14;102931.13;;;0.48;100.00
11413;BME280;5762;43.256;26.960;2024-01-30T06:53:42;102937.45;;;0.47;100.00
11413;BME280;5762;43.256;26.960;2024-01-30T06:56:15;102939.63;;;0.47;100.00
11413;BME280;5762;43.256;26.960;2024-01-30T06:58:40;102943.61;;;0.47;100.00
11413;BME280;5762;43.256;26.960;2024-01-30T07:01:08;102939.28;;;0.46;100.00
11413;BME280;5762;43.256;26.960;2024-01-30T07:03:36;102938.63;;;0.48;100.00
11413;BME280;5762;43.256;26.960;2024-01-30T07:06:05;102926.64;;;0.48;100.00
11413;BME280;5762;43.256;26.960;2024-01-30T07:08:33;102930.14;;;0.49;100.00
11413;BME280;5762;43.256;26.960;2024-01-30T07:11:01;102926.80;;;0.47;100.00
11413;BME280;5762;43.256;26.960;2024-01-30T07:13:27;102933.64;;;0.49;100.00
11413;BME280;5762;43.256;26.960;2024-01-30T07:15:56;102927.97;;;0.48;100.00
11413;BME280;5762;43.256;26.960;2024-01-30T07:18:24;102930.30;;;0.47;100.00
11413;BME280;5762;43.256;26.960;2024-01-30T07:20:52;102921.34;;;0.52;100.00
11413;BME280;5762;43.256;26.960;2024-01-30T07:23:20;102932.69;;;0.54;100.00
11413;BME280;5762;43.256;26.960;2024-01-30T07:25:48;102910.42;;;0.59;100.00
11413;BME280;5762;43.256;26.960;2024-01-30T07:28:16;102908.74;;;0.58;100.00
11413;BME280;5762;43.256;26.960;2024-01-30T07:30:44;102917.64;;;0.67;100.00
11413;BME280;5762;43.256;26.960;2024-01-30T07:33:13;102904.47;;;0.65;100.00
11413;BME280;5762;43.256;26.960;2024-01-30T07:35:41;102904.13;;;0.64;100.00
11413;BME280;5762;43.256;26.960;2024-01-30T07:38:09;102909.66;;;0.67;100.00
11413;BME280;5762;43.256;26.960;2024-01-30T07:40:37;102905.50;;;0.69;100.00
11413;BME280;5762;43.256;26.960;2024-01-30T07:43:05;102904.16;;;0.69;100.00
11413;BME280;5762;43.256;26.960;2024-01-30T07:45:33;102910.18;;;0.75;100.00
11413;BME280;5762;43.256;26.960;2024-01-30T07:48:01;102913.53;;;0.77;100.00
11413;BME280;5762;43.256;26.960;2024-01-30T07:50:30;102915.86;;;0.76;100.00
11413;BME280;5762;43.256;26.960;2024-01-30T07:52:59;102921.91;;;0.82;100.00
11413;BME280;5762;43.256;26.960;2024-01-30T07:55:27;102911.42;;;0.84;100.00
11413;BME280;5762;43.256;26.960;2024-01-30T07:57:55;102901.10;;;0.85;100.00
11413;BME280;5762;43.256;26.960;2024-01-30T08:00:23;102907.27;;;0.86;100.00
11413;BME280;5762;43.256;26.960;2024-01-30T08:02:51;102889.59;;;0.85;100.00
11413;BME280;5762;43.256;26.960;2024-01-30T08:05:20;102898.15;;;0.92;100.00
11413;BME280;5762;43.256;26.960;2024-01-30T08:07:48;102896.30;;;0.89;100.00
11413;BME280;5762;43.256;26.960;2024-01-30T08:10:17;102898.83;;;0.94;100.00
11413;BME280;5762;43.256;26.960;2024-01-30T08:12:47;102894.80;;;0.90;100.00
11413;BME280;5762;43.256;26.960;2024-01-30T08:15:16;102886.49;;;0.93;100.00
11413;BME280;5762;43.256;26.960;2024-01-30T08:17:44;102895.33;;;0.94;100.00
11413;BME280;5762;43.256;26.960;2024-01-30T08:20:12;102906.39;;;1.03;100.00
11413;BME280;5762;43.256;26.960;2024-01-30T08:22:40;102893.06;;;1.03;100.00
11413;BME280;5762;43.256;26.960;2024-01-30T08:25:09;102881.03;;;0.99;100.00
11413;BME280;5762;43.256;26.960;2024-01-30T08:27:37;102876.88;;;1.00;100.00
11413;BME280;5762;43.256;26.960;2024-01-30T08:30:08;102889.71;;;1.01;100.00
11413;BME280;5762;43.256;26.960;2024-01-30T08:32:36;102891.06;;;1.09;100.00
11413;BME280;5762;43.256;26.960;2024-01-30T08:35:05;102893.92;;;1.12;100.00
11413;BME280;5762;43.256;26.960;2024-01-30T08:37:33;102889.08;;;1.11;100.00
11413;BME280;5762;43.256;26.960;2024-01-30T08:40:01;102887.12;;;1.17;100.00
11413;BME280;5762;43.256;26.960;2024-01-30T08:42:30;102877.75;;;1.13;100.00
11413;BME280;5762;43.256;26.960;2024-01-30T08:44:58;102875.41;;;1.10;100.00
11413;BME280;5762;43.256;26.960;2024-01-30T08:47:26;102882.09;;;1.14;100.00
11413;BME280;5762;43.256;26.960;2024-01-30T08:49:54;102884.11;;;1.16;100.00
11413;BME280;5762;43.256;26.960;2024-01-30T08:52:23;102878.44;;;1.15;100.00
11413;BME280;5762;43.256;26.960;2024-01-30T08:54:51;102875.73;;;1.11;100.00
11413;BME280;5762;43.256;26.960;2024-01-30T08:57:19;102882.77;;;1.16;100.00
11413;BME280;5762;43.256;26.960;2024-01-30T08:59:47;102877.09;;;1.15;100.00
11413;BME280;5762;43.256;26.960;2024-01-30T09:02:18;102878.44;;;1.15;100.00
11413;BME280;5762;43.256;26.960;2024-01-30T09:04:46;102874.95;;;1.19;100.00
11413;BME280;5762;43.256;26.960;2024-01-30T09:07:14;102879.34;;;1.28;100.00
11413;BME280;5762;43.256;26.960;2024-01-30T09:09:42;102873.34;;;1.30;100.00
11413;BME280;5762;43.256;26.960;2024-01-30T09:12:11;102867.45;;;1.18;100.00
11413;BME280;5762;43.256;26.960;2024-01-30T09:14:39;102856.32;;;1.27;100.00
11413;BME280;5762;43.256;26.960;2024-01-30T09:17:08;102842.30;;;1.25;100.00
11413;BME280;5762;43.256;26.960;2024-01-30T09:19:36;102852.50;;;1.29;100.00
11413;BME280;5762;43.256;26.960;2024-01-30T09:22:04;102847.36;;;1.36;100.00
11413;BME280;5762;43.256;26.960;2024-01-30T09:24:32;102825.85;;;1.38;100.00
11413;BME280;5762;43.256;26.960;2024-01-30T09:27:00;102835.34;;;1.36;100.00
11413;BME280;5762;43.256;26.960;2024-01-30T09:29:28;102834.52;;;1.44;100.00
11413;BME280;5762;43.256;26.960;2024-01-30T09:31:56;102835.05;;;1.51;100.00
11413;BME280;5762;43.256;26.960;2024-01-30T09:34:25;102822.73;;;1.58;100.00
11413;BME280;5762;43.256;26.960;2024-01-30T09:36:53;102821.05;;;1.57;100.00
11413;BME280;5762;43.256;26.960;2024-01-30T09:39:21;102818.23;;;1.63;100.00
11413;BME280;5762;43.256;26.960;2024-01-30T09:41:51;102798.84;;;1.53;100.00
11413;BME280;5762;43.256;26.960;2024-01-30T09:44:19;102807.57;;;1.67;100.00
11413;BME280;5762;43.256;26.960;2024-01-30T09:46:48;102801.55;;;1.77;100.00
11413;BME280;5762;43.256;26.960;2024-01-30T09:49:14;102792.03;;;1.75;100.00
11413;BME280;5762;43.256;26.960;2024-01-30T09:51:44;102781.36;;;1.79;100.00
11413;BME280;5762;43.256;26.960;2024-01-30T09:54:13;102779.05;;;1.92;100.00
11413;BME280;5762;43.256;26.960;2024-01-30T09:56:42;102770.53;;;1.96;100.00
11413;BME280;5762;43.256;26.960;2024-01-30T09:59:10;102771.21;;;2.07;100.00
11413;BME280;5762;43.256;26.960;2024-01-30T10:01:38;102765.03;;;2.02;100.00
11413;BME280;5762;43.256;26.960;2024-01-30T10:04:07;102754.14;;;2.20;100.00
11413;BME280;5762;43.256;26.960;2024-01-30T10:06:35;102739.12;;;2.19;100.00
11413;BME280;5762;43.256;26.960;2024-01-30T10:09:03;102732.09;;;2.30;100.00
11413;BME280;5762;43.256;26.960;2024-01-30T10:11:32;102748.06;;;2.50;100.00
11413;BME280;5762;43.256;26.960;2024-01-30T10:14:00;102737.70;;;2.51;100.00
11413;BME280;5762;43.256;26.960;2024-01-30T10:16:28;102728.02;;;2.54;100.00
11413;BME280;5762;43.256;26.960;2024-01-30T10:18:56;102720.97;;;2.61;100.00
11413;BME280;5762;43.256;26.960;2024-01-30T10:21:24;102706.89;;;2.76;100.00
11413;BME280;5762;43.256;26.960;2024-01-30T10:23:52;102712.84;;;2.86;100.00
11413;BME280;5762;43.256;26.960;2024-01-30T10:26:20;102694.05;;;2.67;100.00
11413;BME280;5762;43.256;26.960;2024-01-30T10:28:49;102693.91;;;2.60;100.00
11413;BME280;5762;43.256;26.960;2024-01-30T10:31:17;102676.38;;;2.54;100.00
11413;BME280;5762;43.256;26.960;2024-01-30T10:33:45;102673.98;;;2.71;100.00
11413;BME280;5762;43.256;26.960;2024-01-30T10:36:14;102683.44;;;2.82;100.00
11413;BME280;5762;43.256;26.960;2024-01-30T10:38:42;102671.73;;;2.83;100.00
11413;BME280;5762;43.256;26.960;2024-01-30T10:41:11;102676.19;;;2.94;100.00
11413;BME280;5762;43.256;26.960;2024-01-30T10:43:42;102665.69;;;2.89;100.00
11413;BME280;5762;43.256;26.960;2024-01-30T10:48:42;102656.44;;;2.99;100.00
11413;BME280;5762;43.256;26.960;2024-01-30T10:51:11;102643.86;;;3.04;100.00
11413;BME280;5762;43.256;26.960;2024-01-30T10:53:39;102639.52;;;3.03;100.00
11413;BME280;5762;43.256;26.960;2024-01-30T10:56:07;102634.00;;;3.05;100.00
11413;BME280;5762;43.256;26.960;2024-01-30T10:58:36;102616.85;;;3.14;100.00
11413;BME280;5762;43.256;26.960;2024-01-30T11:01:04;102621.05;;;3.12;100.00
11413;BME280;5762;43.256;26.960;2024-01-30T11:03:33;102616.31;;;3.18;100.00
11413;BME280;5762;43.256;26.960;2024-01-30T11:06:02;102620.94;;;3.28;100.00
11413;BME280;5762;43.256;26.960;2024-01-30T11:08:32;102595.38;;;3.22;100.00
11413;BME280;5762;43.256;26.960;2024-01-30T11:11:00;102591.31;;;3.30;100.00
11413;BME280;5762;43.256;26.960;2024-01-30T11:13:31;102575.00;;;3.40;100.00
11413;BME280;5762;43.256;26.960;2024-01-30T11:16:02;102557.50;;;3.48;100.00
11413;BME280;5762;43.256;26.960;2024-01-30T11:18:31;102549.72;;;3.57;100.00
11413;BME280;5762;43.256;26.960;2024-01-30T11:20:59;102532.86;;;3.52;100.00
11413;BME280;5762;43.256;26.960;2024-01-30T11:23:28;102526.02;;;3.50;100.00
11413;BME280;5762;43.256;26.960;2024-01-30T11:25:56;102530.47;;;3.57;100.00
11413;BME280;5762;43.256;26.960;2024-01-30T11:28:24;102534.74;;;3.48;100.00
11413;BME280;5762;43.256;26.960;2024-01-30T11:31:02;102533.52;;;3.54;100.00
11413;BME280;5762;43.256;26.960;2024-01-30T11:33:29;102537.48;;;3.58;100.00
11413;BME280;5762;43.256;26.960;2024-01-30T11:35:57;102537.09;;;3.65;100.00
11413;BME280;5762;43.256;26.960;2024-01-30T11:38:29;102544.77;;;3.50;100.00
11413;BME280;5762;43.256;26.960;2024-01-30T11:40:57;102552.22;;;3.44;100.00
11413;BME280;5762;43.256;26.960;2024-01-30T11:43:25;102546.70;;;3.22;100.00
11413;BME280;5762;43.256;26.960;2024-01-30T11:45:53;102550.98;;;3.31;100.00
11413;BME280;5762;43.256;26.960;2024-01-30T11:48:21;102553.62;;;3.35;100.00
11413;BME280;5762;43.256;26.960;2024-01-30T11:50:49;102560.64;;;3.36;100.00
11413;BME280;5762;43.256;26.960;2024-01-30T11:53:18;102545.40;;;3.18;100.00
11413;BME280;5762;43.256;26.960;2024-01-30T11:55:50;102558.45;;;3.17;100.00
11413;BME280;5762;43.256;26.960;2024-01-30T11:58:16;102556.94;;;3.19;100.00
11413;BME280;5762;43.256;26.960;2024-01-30T12:00:52;102550.88;;;3.06;100.00
11413;BME280;5762;43.256;26.960;2024-01-30T12:03:14;102552.23;;;3.02;100.00
11413;BME280;5762;43.256;26.960;2024-01-30T12:05:42;102564.28;;;3.02;100.00
11413;BME280;5762;43.256;26.960;2024-01-30T12:08:16;102561.07;;;3.07;100.00
11413;BME280;5762;43.256;26.960;2024-01-30T12:10:44;102551.85;;;3.09;100.00
11413;BME280;5762;43.256;26.960;2024-01-30T12:13:12;102550.84;;;3.10;100.00
11413;BME280;5762;43.256;26.960;2024-01-30T12:15:41;102541.23;;;3.16;100.00
11413;BME280;5762;43.256;26.960;2024-01-30T12:18:10;102543.64;;;3.29;100.00
11413;BME280;5762;43.256;26.960;2024-01-30T12:20:38;102548.78;;;3.50;100.00
11413;BME280;5762;43.256;26.960;2024-01-30T12:23:06;102541.25;;;3.49;100.00
11413;BME280;5762;43.256;26.960;2024-01-30T12:25:34;102546.06;;;3.54;100.00
11413;BME280;5762;43.256;26.960;2024-01-30T12:28:02;102538.14;;;3.60;100.00
11413;BME280;5762;43.256;26.960;2024-01-30T12:30:30;102543.31;;;3.62;100.00
11413;BME280;5762;43.256;26.960;2024-01-30T12:32:59;102538.89;;;3.69;100.00
11413;BME280;5762;43.256;26.960;2024-01-30T12:35:28;102541.34;;;3.75;100.00
11413;BME280;5762;43.256;26.960;2024-01-30T12:37:56;102532.50;;;3.55;100.00
11413;BME280;5762;43.256;26.960;2024-01-30T12:40:24;102533.11;;;3.61;100.00
11413;BME280;5762;43.256;26.960;2024-01-30T12:42:52;102531.34;;;3.54;100.00
11413;BME280;5762;43.256;26.960;2024-01-30T12:45:21;102545.66;;;3.61;100.00
11413;BME280;5762;43.256;26.960;2024-01-30T12:47:49;102530.29;;;3.44;100.00
11413;BME280;5762;43.256;26.960;2024-01-30T12:50:17;102521.69;;;3.34;100.00
11413;BME280;5762;43.256;26.960;2024-01-30T12:52:45;102526.34;;;3.17;100.00
11413;BME280;5762;43.256;26.960;2024-01-30T12:55:14;102546.44;;;3.13;100.00
11413;BME280;5762;43.256;26.960;2024-01-30T12:57:42;102542.81;;;3.10;100.00